sensor_id;sensor_type;location;lat;lon;timestamp;P1;durP1;ratioP1;P2;durP2;ratioP2
51614;SDS011;37695;52.960;6.188;2023-07-13T00:02:14;13.35;;;4.53;;
51614;SDS011;37695;52.960;6.188;2023-07-13T00:04:40;15.30;;;4.22;;
51614;SDS011;37695;52.960;6.188;2023-07-13T00:07:06;13.82;;;4.03;;
51614;SDS011;37695;52.960;6.188;2023-07-13T00:09:32;10.32;;;3.70;;
51614;SDS011;37695;52.960;6.188;2023-07-13T00:11:58;10.13;;;3.45;;
51614;SDS011;37695;52.960;6.188;2023-07-13T00:14:25;13.20;;;4.30;;
51614;SDS011;37695;52.960;6.188;2023-07-13T00:16:52;12.02;;;3.83;;
51614;SDS011;37695;52.960;6.188;2023-07-13T00:19:18;14.55;;;3.92;;
51614;SDS011;37695;52.960;6.188;2023-07-13T00:21:43;14.95;;;4.28;;
51614;SDS011;37695;52.960;6.188;2023-07-13T00:24:11;12.82;;;4.15;;
51614;SDS011;37695;52.960;6.188;2023-07-13T00:26:38;12.57;;;3.65;;
51614;SDS011;37695;52.960;6.188;2023-07-13T00:29:05;11.05;;;4.60;;
51614;SDS011;37695;52.960;6.188;2023-07-13T00:31:34;15.88;;;4.45;;
51614;SDS011;37695;52.960;6.188;2023-07-13T00:34:00;10.43;;;3.95;;
51614;SDS011;37695;52.960;6.188;2023-07-13T00:36:26;12.93;;;4.53;;
51614;SDS011;37695;52.960;6.188;2023-07-13T00:38:52;12.63;;;4.03;;
51614;SDS011;37695;52.960;6.188;2023-07-13T00:41:18;12.93;;;4.30;;
51614;SDS011;37695;52.960;6.188;2023-07-13T00:46:21;11.57;;;4.13;;
51614;SDS011;37695;52.960;6.188;2023-07-13T00:48:55;15.10;;;4.55;;
51614;SDS011;37695;52.960;6.188;2023-07-13T00:51:26;11.05;;;3.97;;
51614;SDS011;37695;52.960;6.188;2023-07-13T00:53:56;14.98;;;4.53;;
51614;SDS011;37695;52.960;6.188;2023-07-13T00:56:24;14.23;;;4.90;;
51614;SDS011;37695;52.960;6.188;2023-07-13T00:58:50;15.32;;;3.75;;
51614;SDS011;37695;52.960;6.188;2023-07-13T01:01:16;13.27;;;4.78;;
51614;SDS011;37695;52.960;6.188;2023-07-13T01:03:41;15.25;;;4.78;;
51614;SDS011;37695;52.960;6.188;2023-07-13T01:06:07;14.93;;;4.95;;
51614;SDS011;37695;52.960;6.188;2023-07-13T01:08:33;15.00;;;5.20;;
51614;SDS011;37695;52.960;6.188;2023-07-13T01:10:59;16.60;;;4.85;;
51614;SDS011;37695;52.960;6.188;2023-07-13T01:13:25;14.05;;;5.00;;
51614;SDS011;37695;52.960;6.188;2023-07-13T01:15:51;15.57;;;4.95;;
51614;SDS011;37695;52.960;6.188;2023-07-13T01:18:19;14.15;;;4.60;;
51614;SDS011;37695;52.960;6.188;2023-07-13T01:23:17;11.95;;;4.22;;
51614;SDS011;37695;52.960;6.188;2023-07-13T01:25:44;15.20;;;4.90;;
51614;SDS011;37695;52.960;6.188;2023-07-13T01:28:10;13.60;;;4.75;;
51614;SDS011;37695;52.960;6.188;2023-07-13T01:30:36;11.13;;;4.32;;
51614;SDS011;37695;52.960;6.188;2023-07-13T01:33:05;15.25;;;4.85;;
51614;SDS011;37695;52.960;6.188;2023-07-13T01:35:32;10.40;;;3.95;;
51614;SDS011;37695;52.960;6.188;2023-07-13T01:37:58;14.82;;;4.50;;
51614;SDS011;37695;52.960;6.188;2023-07-13T01:40:26;14.48;;;4.63;;
51614;SDS011;37695;52.960;6.188;2023-07-13T01:42:53;13.43;;;4.20;;
51614;SDS011;37695;52.960;6.188;2023-07-13T01:45:18;12.52;;;4.60;;
51614;SDS011;37695;52.960;6.188;2023-07-13T01:47:44;18.15;;;5.30;;
51614;SDS011;37695;52.960;6.188;2023-07-13T01:50:10;9.57;;;3.78;;
51614;SDS011;37695;52.960;6.188;2023-07-13T01:52:35;13.25;;;4.22;;
51614;SDS011;37695;52.960;6.188;2023-07-13T01:55:01;10.68;;;3.88;;
51614;SDS011;37695;52.960;6.188;2023-07-13T01:57:27;12.43;;;4.63;;
51614;SDS011;37695;52.960;6.188;2023-07-13T01:59:53;12.55;;;4.18;;
51614;SDS011;37695;52.960;6.188;2023-07-13T02:02:19;17.63;;;4.90;;
51614;SDS011;37695;52.960;6.188;2023-07-13T02:04:44;12.05;;;4.22;;
51614;SDS011;37695;52.960;6.188;2023-07-13T02:07:10;10.13;;;3.42;;
51614;SDS011;37695;52.960;6.188;2023-07-13T02:09:36;18.65;;;4.55;;
51614;SDS011;37695;52.960;6.188;2023-07-13T02:12:02;11.32;;;4.40;;
51614;SDS011;37695;52.960;6.188;2023-07-13T02:14:28;12.27;;;4.43;;
51614;SDS011;37695;52.960;6.188;2023-07-13T02:16:54;9.80;;;3.72;;
51614;SDS011;37695;52.960;6.188;2023-07-13T02:19:19;8.25;;;3.72;;
51614;SDS011;37695;52.960;6.188;2023-07-13T02:21:45;11.57;;;3.65;;
51614;SDS011;37695;52.960;6.188;2023-07-13T02:24:11;9.48;;;3.67;;
51614;SDS011;37695;52.960;6.188;2023-07-13T02:26:42;11.82;;;3.75;;
51614;SDS011;37695;52.960;6.188;2023-07-13T02:29:08;10.35;;;3.75;;
51614;SDS011;37695;52.960;6.188;2023-07-13T02:31:34;9.52;;;3.88;;
51614;SDS011;37695;52.960;6.188;2023-07-13T02:34:01;10.45;;;3.60;;
51614;SDS011;37695;52.960;6.188;2023-07-13T02:36:28;9.75;;;3.78;;
51614;SDS011;37695;52.960;6.188;2023-07-13T02:38:54;11.15;;;3.88;;
51614;SDS011;37695;52.960;6.188;2023-07-13T02:41:19;7.90;;;3.30;;
51614;SDS011;37695;52.960;6.188;2023-07-13T02:43:45;11.38;;;3.63;;
51614;SDS011;37695;52.960;6.188;2023-07-13T02:46:11;9.80;;;3.72;;
51614;SDS011;37695;52.960;6.188;2023-07-13T02:48:37;8.68;;;3.35;;
51614;SDS011;37695;52.960;6.188;2023-07-13T02:51:04;8.15;;;3.45;;
51614;SDS011;37695;52.960;6.188;2023-07-13T02:53:30;9.00;;;3.90;;
51614;SDS011;37695;52.960;6.188;2023-07-13T02:55:56;9.25;;;3.63;;
51614;SDS011;37695;52.960;6.188;2023-07-13T02:58:22;11.68;;;3.30;;
51614;SDS011;37695;52.960;6.188;2023-07-13T03:00:48;8.93;;;3.60;;
51614;SDS011;37695;52.960;6.188;2023-07-13T03:03:15;11.68;;;3.85;;
51614;SDS011;37695;52.960;6.188;2023-07-13T03:05:42;12.52;;;4.15;;
51614;SDS011;37695;52.960;6.188;2023-07-13T03:08:10;9.75;;;3.60;;
51614;SDS011;37695;52.960;6.188;2023-07-13T03:10:36;10.48;;;3.72;;
51614;SDS011;37695;52.960;6.188;2023-07-13T03:13:04;11.02;;;3.92;;
51614;SDS011;37695;52.960;6.188;2023-07-13T03:15:30;10.40;;;3.83;;
51614;SDS011;37695;52.960;6.188;2023-07-13T03:17:56;13.05;;;4.35;;
51614;SDS011;37695;52.960;6.188;2023-07-13T03:20:21;14.38;;;4.05;;
51614;SDS011;37695;52.960;6.188;2023-07-13T03:22:47;8.88;;;4.05;;
51614;SDS011;37695;52.960;6.188;2023-07-13T03:25:13;15.35;;;4.28;;
51614;SDS011;37695;52.960;6.188;2023-07-13T03:27:39;14.10;;;4.07;;
51614;SDS011;37695;52.960;6.188;2023-07-13T03:30:04;10.63;;;3.88;;
51614;SDS011;37695;52.960;6.188;2023-07-13T03:32:31;11.80;;;4.47;;
51614;SDS011;37695;52.960;6.188;2023-07-13T03:34:57;14.35;;;4.13;;
51614;SDS011;37695;52.960;6.188;2023-07-13T03:37:23;11.07;;;4.53;;
51614;SDS011;37695;52.960;6.188;2023-07-13T03:39:49;12.93;;;4.25;;
51614;SDS011;37695;52.960;6.188;2023-07-13T03:42:15;10.77;;;4.20;;
51614;SDS011;37695;52.960;6.188;2023-07-13T03:44:41;18.05;;;5.45;;
51614;SDS011;37695;52.960;6.188;2023-07-13T03:47:11;10.80;;;4.45;;
51614;SDS011;37695;52.960;6.188;2023-07-13T03:49:37;16.15;;;4.38;;
51614;SDS011;37695;52.960;6.188;2023-07-13T03:52:02;18.52;;;4.95;;
51614;SDS011;37695;52.960;6.188;2023-07-13T03:54:29;10.93;;;4.13;;
51614;SDS011;37695;52.960;6.188;2023-07-13T03:56:54;15.95;;;5.32;;
51614;SDS011;37695;52.960;6.188;2023-07-13T03:59:20;14.63;;;5.03;;
51614;SDS011;37695;52.960;6.188;2023-07-13T04:01:46;18.10;;;4.78;;
51614;SDS011;37695;52.960;6.188;2023-07-13T04:04:12;13.07;;;4.97;;
51614;SDS011;37695;52.960;6.188;2023-07-13T04:06:38;15.43;;;5.13;;
51614;SDS011;37695;52.960;6.188;2023-07-13T04:09:04;14.73;;;5.25;;
51614;SDS011;37695;52.960;6.188;2023-07-13T04:11:33;15.15;;;5.30;;
51614;SDS011;37695;52.960;6.188;2023-07-13T04:14:01;15.15;;;4.63;;
51614;SDS011;37695;52.960;6.188;2023-07-13T04:16:27;10.73;;;4.38;;
51614;SDS011;37695;52.960;6.188;2023-07-13T04:18:54;14.32;;;4.70;;
51614;SDS011;37695;52.960;6.188;2023-07-13T04:21:24;12.05;;;4.60;;
51614;SDS011;37695;52.960;6.188;2023-07-13T04:23:50;10.35;;;4.40;;
51614;SDS011;37695;52.960;6.188;2023-07-13T04:26:16;14.05;;;4.97;;
51614;SDS011;37695;52.960;6.188;2023-07-13T04:28:41;11.63;;;4.68;;
51614;SDS011;37695;52.960;6.188;2023-07-13T04:31:07;16.60;;;5.38;;
51614;SDS011;37695;52.960;6.188;2023-07-13T04:33:33;12.18;;;4.45;;
51614;SDS011;37695;52.960;6.188;2023-07-13T04:35:58;15.65;;;4.35;;
51614;SDS011;37695;52.960;6.188;2023-07-13T04:38:26;15.60;;;4.68;;
51614;SDS011;37695;52.960;6.188;2023-07-13T04:40:56;11.95;;;4.93;;
51614;SDS011;37695;52.960;6.188;2023-07-13T04:43:24;13.85;;;5.15;;
51614;SDS011;37695;52.960;6.188;2023-07-13T04:45:51;12.82;;;4.70;;
51614;SDS011;37695;52.960;6.188;2023-07-13T04:48:17;16.42;;;4.75;;
51614;SDS011;37695;52.960;6.188;2023-07-13T04:50:43;13.07;;;4.40;;
51614;SDS011;37695;52.960;6.188;2023-07-13T04:53:09;17.55;;;5.35;;
51614;SDS011;37695;52.960;6.188;2023-07-13T04:55:35;13.60;;;4.82;;
51614;SDS011;37695;52.960;6.188;2023-07-13T04:58:01;13.68;;;4.70;;
51614;SDS011;37695;52.960;6.188;2023-07-13T05:00:28;14.93;;;5.15;;
51614;SDS011;37695;52.960;6.188;2023-07-13T05:02:58;14.50;;;4.57;;
51614;SDS011;37695;52.960;6.188;2023-07-13T05:05:24;12.02;;;4.20;;
51614;SDS011;37695;52.960;6.188;2023-07-13T05:07:51;11.82;;;4.95;;
51614;SDS011;37695;52.960;6.188;2023-07-13T05:10:17;12.68;;;4.55;;
51614;SDS011;37695;52.960;6.188;2023-07-13T05:12:43;14.52;;;5.15;;
51614;SDS011;37695;52.960;6.188;2023-07-13T05:15:09;12.63;;;4.47;;
51614;SDS011;37695;52.960;6.188;2023-07-13T05:17:35;15.23;;;4.65;;
51614;SDS011;37695;52.960;6.188;2023-07-13T05:20:04;10.45;;;4.45;;
51614;SDS011;37695;52.960;6.188;2023-07-13T05:22:30;10.80;;;4.25;;
51614;SDS011;37695;52.960;6.188;2023-07-13T05:24:56;15.10;;;4.40;;
51614;SDS011;37695;52.960;6.188;2023-07-13T05:27:22;12.88;;;4.72;;
51614;SDS011;37695;52.960;6.188;2023-07-13T05:29:48;14.88;;;4.32;;
51614;SDS011;37695;52.960;6.188;2023-07-13T05:32:14;11.45;;;4.25;;
51614;SDS011;37695;52.960;6.188;2023-07-13T05:34:40;10.18;;;4.05;;
51614;SDS011;37695;52.960;6.188;2023-07-13T05:37:07;13.27;;;4.57;;
51614;SDS011;37695;52.960;6.188;2023-07-13T05:39:33;12.85;;;4.25;;
51614;SDS011;37695;52.960;6.188;2023-07-13T05:41:58;10.68;;;3.85;;
51614;SDS011;37695;52.960;6.188;2023-07-13T05:44:24;10.18;;;4.03;;
51614;SDS011;37695;52.960;6.188;2023-07-13T05:46:50;11.10;;;3.67;;
51614;SDS011;37695;52.960;6.188;2023-07-13T05:49:15;8.48;;;3.70;;
51614;SDS011;37695;52.960;6.188;2023-07-13T05:51:41;11.00;;;4.10;;
51614;SDS011;37695;52.960;6.188;2023-07-13T05:54:07;9.32;;;3.42;;
51614;SDS011;37695;52.960;6.188;2023-07-13T05:56:32;7.45;;;3.28;;
51614;SDS011;37695;52.960;6.188;2023-07-13T05:58:58;10.82;;;3.90;;
51614;SDS011;37695;52.960;6.188;2023-07-13T06:01:23;12.52;;;3.97;;
51614;SDS011;37695;52.960;6.188;2023-07-13T06:03:49;7.25;;;3.00;;
51614;SDS011;37695;52.960;6.188;2023-07-13T06:06:15;8.52;;;3.22;;
51614;SDS011;37695;52.960;6.188;2023-07-13T06:08:41;8.55;;;3.13;;
51614;SDS011;37695;52.960;6.188;2023-07-13T06:13:37;10.88;;;3.47;;
51614;SDS011;37695;52.960;6.188;2023-07-13T06:16:03;9.10;;;3.35;;
51614;SDS011;37695;52.960;6.188;2023-07-13T06:18:29;7.93;;;3.65;;
51614;SDS011;37695;52.960;6.188;2023-07-13T06:20:56;10.00;;;3.28;;
51614;SDS011;37695;52.960;6.188;2023-07-13T06:23:22;9.13;;;3.58;;
51614;SDS011;37695;52.960;6.188;2023-07-13T06:25:48;11.07;;;4.00;;
51614;SDS011;37695;52.960;6.188;2023-07-13T06:28:14;9.45;;;3.55;;
51614;SDS011;37695;52.960;6.188;2023-07-13T06:30:39;9.45;;;3.50;;
51614;SDS011;37695;52.960;6.188;2023-07-13T06:33:05;11.10;;;3.72;;
51614;SDS011;37695;52.960;6.188;2023-07-13T06:35:31;12.55;;;3.97;;
51614;SDS011;37695;52.960;6.188;2023-07-13T06:37:57;8.60;;;3.15;;
51614;SDS011;37695;52.960;6.188;2023-07-13T06:40:22;9.75;;;3.20;;
51614;SDS011;37695;52.960;6.188;2023-07-13T06:42:48;9.77;;;4.03;;
51614;SDS011;37695;52.960;6.188;2023-07-13T06:45:14;11.07;;;3.92;;
51614;SDS011;37695;52.960;6.188;2023-07-13T06:47:39;10.32;;;3.63;;
51614;SDS011;37695;52.960;6.188;2023-07-13T06:50:05;9.98;;;3.55;;
51614;SDS011;37695;52.960;6.188;2023-07-13T06:52:31;11.98;;;3.40;;
51614;SDS011;37695;52.960;6.188;2023-07-13T06:54:57;10.07;;;3.50;;
51614;SDS011;37695;52.960;6.188;2023-07-13T06:57:22;11.98;;;3.60;;
51614;SDS011;37695;52.960;6.188;2023-07-13T06:59:48;8.93;;;3.15;;
51614;SDS011;37695;52.960;6.188;2023-07-13T07:02:14;7.15;;;2.78;;
51614;SDS011;37695;52.960;6.188;2023-07-13T07:04:39;8.88;;;3.50;;
51614;SDS011;37695;52.960;6.188;2023-07-13T07:07:05;12.18;;;3.70;;
51614;SDS011;37695;52.960;6.188;2023-07-13T07:09:31;10.98;;;3.53;;
51614;SDS011;37695;52.960;6.188;2023-07-13T07:11:56;8.07;;;3.00;;
51614;SDS011;37695;52.960;6.188;2023-07-13T07:14:22;8.15;;;3.10;;
51614;SDS011;37695;52.960;6.188;2023-07-13T07:16:49;6.25;;;3.05;;
51614;SDS011;37695;52.960;6.188;2023-07-13T07:19:15;9.38;;;3.22;;
51614;SDS011;37695;52.960;6.188;2023-07-13T07:21:40;6.93;;;2.97;;
51614;SDS011;37695;52.960;6.188;2023-07-13T07:24:06;6.68;;;2.40;;
51614;SDS011;37695;52.960;6.188;2023-07-13T07:26:32;11.20;;;3.00;;
51614;SDS011;37695;52.960;6.188;2023-07-13T07:28:58;7.53;;;2.55;;
51614;SDS011;37695;52.960;6.188;2023-07-13T07:31:24;7.85;;;2.63;;
51614;SDS011;37695;52.960;6.188;2023-07-13T07:33:50;8.73;;;2.80;;
51614;SDS011;37695;52.960;6.188;2023-07-13T07:36:16;9.05;;;2.90;;
51614;SDS011;37695;52.960;6.188;2023-07-13T07:38:43;5.10;;;2.30;;
51614;SDS011;37695;52.960;6.188;2023-07-13T07:41:09;5.70;;;2.30;;
51614;SDS011;37695;52.960;6.188;2023-07-13T07:43:35;5.50;;;2.80;;
51614;SDS011;37695;52.960;6.188;2023-07-13T07:46:01;6.13;;;2.45;;
51614;SDS011;37695;52.960;6.188;2023-07-13T07:48:28;8.88;;;2.65;;
51614;SDS011;37695;52.960;6.188;2023-07-13T07:50:54;6.30;;;2.10;;
51614;SDS011;37695;52.960;6.188;2023-07-13T07:53:19;8.48;;;2.92;;
51614;SDS011;37695;52.960;6.188;2023-07-13T07:55:45;6.05;;;2.45;;
51614;SDS011;37695;52.960;6.188;2023-07-13T07:58:12;7.05;;;2.63;;
51614;SDS011;37695;52.960;6.188;2023-07-13T08:00:38;6.20;;;2.50;;
51614;SDS011;37695;52.960;6.188;2023-07-13T08:03:03;9.23;;;2.88;;
51614;SDS011;37695;52.960;6.188;2023-07-13T08:05:29;5.63;;;2.63;;
51614;SDS011;37695;52.960;6.188;2023-07-13T08:07:55;5.22;;;2.30;;
51614;SDS011;37695;52.960;6.188;2023-07-13T08:10:21;6.80;;;2.42;;
51614;SDS011;37695;52.960;6.188;2023-07-13T08:12:46;6.60;;;2.80;;
51614;SDS011;37695;52.960;6.188;2023-07-13T08:15:13;4.82;;;2.20;;
51614;SDS011;37695;52.960;6.188;2023-07-13T08:17:40;6.80;;;2.63;;
51614;SDS011;37695;52.960;6.188;2023-07-13T08:20:06;8.07;;;3.25;;
51614;SDS011;37695;52.960;6.188;2023-07-13T08:22:34;10.02;;;3.38;;
51614;SDS011;37695;52.960;6.188;2023-07-13T08:25:00;13.00;;;3.72;;
51614;SDS011;37695;52.960;6.188;2023-07-13T08:27:27;8.57;;;3.35;;
51614;SDS011;37695;52.960;6.188;2023-07-13T08:29:53;10.38;;;3.28;;
51614;SDS011;37695;52.960;6.188;2023-07-13T08:32:20;10.10;;;3.75;;
51614;SDS011;37695;52.960;6.188;2023-07-13T08:34:46;7.55;;;3.47;;
51614;SDS011;37695;52.960;6.188;2023-07-13T08:37:12;9.20;;;3.38;;
51614;SDS011;37695;52.960;6.188;2023-07-13T08:39:39;7.70;;;3.08;;
51614;SDS011;37695;52.960;6.188;2023-07-13T08:42:05;13.40;;;3.83;;
51614;SDS011;37695;52.960;6.188;2023-07-13T08:47:04;7.45;;;3.20;;
51614;SDS011;37695;52.960;6.188;2023-07-13T08:49:31;9.07;;;3.45;;
51614;SDS011;37695;52.960;6.188;2023-07-13T08:52:04;7.53;;;3.25;;
51614;SDS011;37695;52.960;6.188;2023-07-13T08:54:36;6.28;;;3.30;;
51614;SDS011;37695;52.960;6.188;2023-07-13T08:57:13;7.28;;;3.55;;
51614;SDS011;37695;52.960;6.188;2023-07-13T08:59:41;8.95;;;3.20;;
51614;SDS011;37695;52.960;6.188;2023-07-13T09:02:22;7.45;;;3.45;;
51614;SDS011;37695;52.960;6.188;2023-07-13T09:05:28;6.10;;;3.40;;
51614;SDS011;37695;52.960;6.188;2023-07-13T09:08:04;6.88;;;3.22;;
51614;SDS011;37695;52.960;6.188;2023-07-13T09:16:08;7.90;;;3.53;;
51614;SDS011;37695;52.960;6.188;2023-07-13T09:18:47;5.00;;;2.65;;
51614;SDS011;37695;52.960;6.188;2023-07-13T09:23:42;6.05;;;2.90;;
51614;SDS011;37695;52.960;6.188;2023-07-13T09:28:46;7.82;;;3.22;;
51614;SDS011;37695;52.960;6.188;2023-07-13T09:31:16;6.57;;;2.83;;
51614;SDS011;37695;52.960;6.188;2023-07-13T09:34:04;5.90;;;3.05;;
51614;SDS011;37695;52.960;6.188;2023-07-13T09:36:34;4.57;;;2.80;;
51614;SDS011;37695;52.960;6.188;2023-07-13T09:44:36;8.25;;;2.70;;
51614;SDS011;37695;52.960;6.188;2023-07-13T09:47:13;8.07;;;3.08;;
51614;SDS011;37695;52.960;6.188;2023-07-13T09:52:19;6.47;;;2.22;;
51614;SDS011;37695;52.960;6.188;2023-07-13T09:54:45;8.73;;;2.17;;
51614;SDS011;37695;52.960;6.188;2023-07-13T09:57:15;4.22;;;2.10;;
51614;SDS011;37695;52.960;6.188;2023-07-13T09:59:43;6.15;;;2.40;;
51614;SDS011;37695;52.960;6.188;2023-07-13T10:04:55;6.38;;;2.17;;
51614;SDS011;37695;52.960;6.188;2023-07-13T10:07:23;7.80;;;2.38;;
51614;SDS011;37695;52.960;6.188;2023-07-13T10:09:55;7.25;;;2.65;;
51614;SDS011;37695;52.960;6.188;2023-07-13T10:12:23;10.73;;;2.88;;
51614;SDS011;37695;52.960;6.188;2023-07-13T10:14:50;9.98;;;2.85;;
51614;SDS011;37695;52.960;6.188;2023-07-13T10:17:20;5.68;;;2.40;;
51614;SDS011;37695;52.960;6.188;2023-07-13T10:19:56;7.30;;;2.33;;
51614;SDS011;37695;52.960;6.188;2023-07-13T10:25:12;6.22;;;2.38;;
51614;SDS011;37695;52.960;6.188;2023-07-13T10:27:41;5.25;;;2.40;;
51614;SDS011;37695;52.960;6.188;2023-07-13T10:30:19;5.10;;;2.28;;
51614;SDS011;37695;52.960;6.188;2023-07-13T10:32:50;6.50;;;2.90;;
51614;SDS011;37695;52.960;6.188;2023-07-13T10:35:18;5.15;;;2.63;;
51614;SDS011;37695;52.960;6.188;2023-07-13T10:40:25;5.40;;;2.30;;
51614;SDS011;37695;52.960;6.188;2023-07-13T10:42:56;9.88;;;2.70;;
51614;SDS011;37695;52.960;6.188;2023-07-13T10:45:25;6.75;;;2.63;;
51614;SDS011;37695;52.960;6.188;2023-07-13T10:47:53;4.85;;;2.05;;
51614;SDS011;37695;52.960;6.188;2023-07-13T10:50:24;5.72;;;2.30;;
51614;SDS011;37695;52.960;6.188;2023-07-13T10:52:55;4.50;;;2.13;;
51614;SDS011;37695;52.960;6.188;2023-07-13T10:58:12;3.67;;;1.90;;
51614;SDS011;37695;52.960;6.188;2023-07-13T11:03:26;6.93;;;1.90;;
51614;SDS011;37695;52.960;6.188;2023-07-13T11:06:04;6.70;;;2.33;;
51614;SDS011;37695;52.960;6.188;2023-07-13T11:10:56;4.55;;;1.90;;
51614;SDS011;37695;52.960;6.188;2023-07-13T11:13:39;6.18;;;2.58;;
51614;SDS011;37695;52.960;6.188;2023-07-13T11:21:26;6.60;;;2.20;;
51614;SDS011;37695;52.960;6.188;2023-07-13T11:24:15;6.15;;;2.45;;
51614;SDS011;37695;52.960;6.188;2023-07-13T11:26:41;5.30;;;2.28;;
51614;SDS011;37695;52.960;6.188;2023-07-13T11:31:59;5.25;;;2.10;;
51614;SDS011;37695;52.960;6.188;2023-07-13T11:36:55;4.93;;;2.10;;
51614;SDS011;37695;52.960;6.188;2023-07-13T11:39:25;3.63;;;1.98;;
51614;SDS011;37695;52.960;6.188;2023-07-13T11:41:57;5.27;;;2.00;;
51614;SDS011;37695;52.960;6.188;2023-07-13T11:44:28;7.35;;;2.55;;
51614;SDS011;37695;52.960;6.188;2023-07-13T11:46:56;6.13;;;2.33;;
51614;SDS011;37695;52.960;6.188;2023-07-13T11:49:26;6.88;;;2.47;;
51614;SDS011;37695;52.960;6.188;2023-07-13T11:51:54;6.63;;;2.30;;
51614;SDS011;37695;52.960;6.188;2023-07-13T11:56:52;5.38;;;2.30;;
51614;SDS011;37695;52.960;6.188;2023-07-13T11:59:19;5.35;;;2.20;;
51614;SDS011;37695;52.960;6.188;2023-07-13T12:01:48;6.30;;;2.20;;
51614;SDS011;37695;52.960;6.188;2023-07-13T12:04:27;5.68;;;2.13;;
51614;SDS011;37695;52.960;6.188;2023-07-13T12:07:14;4.40;;;2.30;;
51614;SDS011;37695;52.960;6.188;2023-07-13T12:09:41;4.82;;;2.38;;
51614;SDS011;37695;52.960;6.188;2023-07-13T12:12:14;3.38;;;1.77;;
51614;SDS011;37695;52.960;6.188;2023-07-13T12:14:43;5.47;;;2.03;;
51614;SDS011;37695;52.960;6.188;2023-07-13T12:17:15;8.18;;;2.28;;
51614;SDS011;37695;52.960;6.188;2023-07-13T12:19:45;6.78;;;2.15;;
51614;SDS011;37695;52.960;6.188;2023-07-13T12:22:14;4.68;;;1.90;;
51614;SDS011;37695;52.960;6.188;2023-07-13T12:24:41;5.35;;;1.95;;
51614;SDS011;37695;52.960;6.188;2023-07-13T12:29:50;4.95;;;2.30;;
51614;SDS011;37695;52.960;6.188;2023-07-13T12:32:36;5.10;;;2.08;;
51614;SDS011;37695;52.960;6.188;2023-07-13T12:35:15;3.50;;;1.65;;
51614;SDS011;37695;52.960;6.188;2023-07-13T12:37:42;4.72;;;2.03;;
51614;SDS011;37695;52.960;6.188;2023-07-13T12:40:13;6.47;;;2.30;;
51614;SDS011;37695;52.960;6.188;2023-07-13T12:42:44;6.95;;;2.22;;
51614;SDS011;37695;52.960;6.188;2023-07-13T12:47:47;5.88;;;2.22;;
51614;SDS011;37695;52.960;6.188;2023-07-13T12:50:16;4.18;;;2.00;;
51614;SDS011;37695;52.960;6.188;2023-07-13T12:52:56;7.68;;;2.30;;
51614;SDS011;37695;52.960;6.188;2023-07-13T12:55:28;7.45;;;1.98;;
51614;SDS011;37695;52.960;6.188;2023-07-13T12:57:58;4.22;;;1.95;;
51614;SDS011;37695;52.960;6.188;2023-07-13T13:03:00;4.23;;;2.20;;
51614;SDS011;37695;52.960;6.188;2023-07-13T13:05:29;5.70;;;1.75;;
51614;SDS011;37695;52.960;6.188;2023-07-13T13:07:55;4.82;;;2.10;;
51614;SDS011;37695;52.960;6.188;2023-07-13T13:10:22;5.32;;;2.00;;
51614;SDS011;37695;52.960;6.188;2023-07-13T13:12:49;3.65;;;1.70;;
51614;SDS011;37695;52.960;6.188;2023-07-13T13:15:15;5.53;;;2.17;;
51614;SDS011;37695;52.960;6.188;2023-07-13T13:17:41;4.03;;;1.92;;
51614;SDS011;37695;52.960;6.188;2023-07-13T13:20:18;5.78;;;2.10;;
51614;SDS011;37695;52.960;6.188;2023-07-13T13:22:46;4.22;;;1.80;;
51614;SDS011;37695;52.960;6.188;2023-07-13T13:25:13;3.40;;;1.83;;
51614;SDS011;37695;52.960;6.188;2023-07-13T13:27:42;4.38;;;1.90;;
51614;SDS011;37695;52.960;6.188;2023-07-13T13:30:13;9.38;;;2.53;;
51614;SDS011;37695;52.960;6.188;2023-07-13T13:32:41;4.70;;;1.80;;
51614;SDS011;37695;52.960;6.188;2023-07-13T13:35:14;5.22;;;1.90;;
51614;SDS011;37695;52.960;6.188;2023-07-13T13:37:41;7.63;;;2.15;;
51614;SDS011;37695;52.960;6.188;2023-07-13T13:40:17;6.45;;;2.30;;
51614;SDS011;37695;52.960;6.188;2023-07-13T13:42:44;6.20;;;2.58;;
51614;SDS011;37695;52.960;6.188;2023-07-13T13:45:10;6.25;;;2.55;;
51614;SDS011;37695;52.960;6.188;2023-07-13T13:47:41;4.93;;;2.13;;
51614;SDS011;37695;52.960;6.188;2023-07-13T13:50:27;6.80;;;2.35;;
51614;SDS011;37695;52.960;6.188;2023-07-13T13:52:53;5.63;;;2.17;;
51614;SDS011;37695;52.960;6.188;2023-07-13T13:55:19;8.88;;;2.30;;
51614;SDS011;37695;52.960;6.188;2023-07-13T13:57:47;4.72;;;2.13;;
51614;SDS011;37695;52.960;6.188;2023-07-13T14:00:13;4.90;;;2.30;;
51614;SDS011;37695;52.960;6.188;2023-07-13T14:02:44;7.97;;;2.40;;
51614;SDS011;37695;52.960;6.188;2023-07-13T14:05:23;9.25;;;2.38;;
51614;SDS011;37695;52.960;6.188;2023-07-13T14:07:53;6.55;;;2.47;;
51614;SDS011;37695;52.960;6.188;2023-07-13T14:10:20;6.72;;;2.53;;
51614;SDS011;37695;52.960;6.188;2023-07-13T14:12:47;5.18;;;2.30;;
51614;SDS011;37695;52.960;6.188;2023-07-13T14:15:28;8.43;;;2.75;;
51614;SDS011;37695;52.960;6.188;2023-07-13T14:17:57;6.75;;;2.28;;
51614;SDS011;37695;52.960;6.188;2023-07-13T14:20:23;9.77;;;2.35;;
51614;SDS011;37695;52.960;6.188;2023-07-13T14:22:51;6.20;;;2.30;;
51614;SDS011;37695;52.960;6.188;2023-07-13T14:25:17;6.30;;;2.30;;
51614;SDS011;37695;52.960;6.188;2023-07-13T14:27:53;8.23;;;2.80;;
51614;SDS011;37695;52.960;6.188;2023-07-13T14:30:24;5.55;;;2.05;;
51614;SDS011;37695;52.960;6.188;2023-07-13T14:32:50;11.38;;;2.60;;
51614;SDS011;37695;52.960;6.188;2023-07-13T14:35:17;7.47;;;2.42;;
51614;SDS011;37695;52.960;6.188;2023-07-13T14:37:45;8.23;;;2.30;;
51614;SDS011;37695;52.960;6.188;2023-07-13T14:40:15;6.63;;;2.50;;
51614;SDS011;37695;52.960;6.188;2023-07-13T14:42:43;5.55;;;2.15;;
51614;SDS011;37695;52.960;6.188;2023-07-13T14:45:16;5.95;;;2.28;;
51614;SDS011;37695;52.960;6.188;2023-07-13T14:47:43;9.57;;;2.58;;
51614;SDS011;37695;52.960;6.188;2023-07-13T14:50:16;6.78;;;2.45;;
51614;SDS011;37695;52.960;6.188;2023-07-13T14:52:46;6.43;;;2.38;;
51614;SDS011;37695;52.960;6.188;2023-07-13T14:55:13;6.93;;;2.65;;
51614;SDS011;37695;52.960;6.188;2023-07-13T14:57:40;6.18;;;2.13;;
51614;SDS011;37695;52.960;6.188;2023-07-13T15:00:13;7.88;;;2.30;;
51614;SDS011;37695;52.960;6.188;2023-07-13T15:02:41;6.15;;;2.28;;
51614;SDS011;37695;52.960;6.188;2023-07-13T15:05:17;7.25;;;2.75;;
51614;SDS011;37695;52.960;6.188;2023-07-13T15:07:44;4.85;;;2.63;;
51614;SDS011;37695;52.960;6.188;2023-07-13T15:10:17;7.57;;;2.30;;
51614;SDS011;37695;52.960;6.188;2023-07-13T15:12:45;7.60;;;2.42;;
51614;SDS011;37695;52.960;6.188;2023-07-13T15:15:11;7.70;;;2.80;;
51614;SDS011;37695;52.960;6.188;2023-07-13T15:17:39;7.28;;;2.60;;
51614;SDS011;37695;52.960;6.188;2023-07-13T15:20:49;9.00;;;3.10;;
51614;SDS011;37695;52.960;6.188;2023-07-13T15:23:00;6.72;;;3.10;;
51614;SDS011;37695;52.960;6.188;2023-07-13T15:25:27;6.25;;;2.38;;
51614;SDS011;37695;52.960;6.188;2023-07-13T15:27:55;6.85;;;2.90;;
51614;SDS011;37695;52.960;6.188;2023-07-13T15:30:22;4.75;;;2.10;;
51614;SDS011;37695;52.960;6.188;2023-07-13T15:32:50;10.80;;;3.35;;
51614;SDS011;37695;52.960;6.188;2023-07-13T15:35:20;6.97;;;2.78;;
51614;SDS011;37695;52.960;6.188;2023-07-13T15:37:53;6.88;;;2.45;;
51614;SDS011;37695;52.960;6.188;2023-07-13T15:40:19;6.57;;;2.45;;
51614;SDS011;37695;52.960;6.188;2023-07-13T15:42:49;10.70;;;3.15;;
51614;SDS011;37695;52.960;6.188;2023-07-13T15:45:19;5.18;;;2.33;;
51614;SDS011;37695;52.960;6.188;2023-07-13T15:47:47;5.05;;;2.50;;
51614;SDS011;37695;52.960;6.188;2023-07-13T15:50:14;5.15;;;2.05;;
51614;SDS011;37695;52.960;6.188;2023-07-13T15:52:43;6.57;;;2.40;;
51614;SDS011;37695;52.960;6.188;2023-07-13T15:55:10;6.55;;;2.80;;